createdAt,value
2022-08-25T00:00:05.281Z,41.34
2022-08-25T00:00:36.717Z,41.10
2022-08-25T00:01:09.228Z,41.44
2022-08-25T00:01:41.439Z,41.36
2022-08-25T00:02:13.072Z,41.11
2022-08-25T00:02:55.511Z,41.24
2022-08-25T00:03:28.008Z,41.58
2022-08-25T00:04:07.459Z,41.47
2022-08-25T00:04:39.145Z,41.63
2022-08-25T00:05:12.054Z,41.36
2022-08-25T00:05:43.575Z,41.39
2022-08-25T00:06:15.038Z,41.40
2022-08-25T00:06:46.498Z,41.40
2022-08-25T00:07:18.683Z,41.48
2022-08-25T00:07:50.213Z,41.48
2022-08-25T00:08:21.645Z,41.45
2022-08-25T00:08:53.072Z,41.39
2022-08-25T00:09:24.500Z,41.54
2022-08-25T00:09:55.936Z,41.45
2022-08-25T00:10:27.371Z,41.32
2022-08-25T00:11:03.134Z,41.45
2022-08-25T00:11:34.846Z,41.18
2022-08-25T00:12:06.287Z,41.29
2022-08-25T00:12:37.715Z,41.49
2022-08-25T00:13:09.154Z,41.67
2022-08-25T00:13:40.598Z,41.32
2022-08-25T00:14:12.039Z,41.08
2022-08-25T00:14:43.480Z,41.28
2022-08-25T00:15:14.903Z,41.70
2022-08-25T00:15:46.399Z,41.27
2022-08-25T00:16:17.922Z,41.63
2022-08-25T00:16:49.821Z,41.60
2022-08-25T00:17:21.271Z,41.51
2022-08-25T00:17:52.713Z,41.20
2022-08-25T00:18:24.158Z,41.35
2022-08-25T00:18:55.598Z,41.42
2022-08-25T00:19:27.028Z,41.68
2022-08-25T00:19:59.608Z,41.22
2022-08-25T00:20:31.041Z,41.34
2022-08-25T00:21:02.466Z,41.49
2022-08-25T00:21:33.893Z,41.30
2022-08-25T00:22:05.423Z,41.71
2022-08-25T00:22:36.849Z,41.50
2022-08-25T00:23:08.279Z,41.50
2022-08-25T00:23:40.027Z,41.48
2022-08-25T00:24:11.466Z,41.17
2022-08-25T00:24:42.921Z,41.59
2022-08-25T00:25:14.355Z,41.40
2022-08-25T00:25:45.784Z,41.34
2022-08-25T00:26:17.221Z,41.52
2022-08-25T00:26:48.655Z,41.44
2022-08-25T00:27:20.128Z,41.58
2022-08-25T00:27:51.557Z,41.53
2022-08-25T00:28:22.992Z,41.60
2022-08-25T00:28:54.424Z,41.48
2022-08-25T00:29:32.725Z,41.62
2022-08-25T00:30:04.161Z,41.58
2022-08-25T00:30:35.597Z,41.66
2022-08-25T00:31:07.126Z,41.62
2022-08-25T00:31:39.197Z,41.73
2022-08-25T00:32:10.747Z,41.61
2022-08-25T00:32:42.249Z,41.58
2022-08-25T00:33:20.334Z,41.67
2022-08-25T00:33:51.765Z,41.88
2022-08-25T00:34:23.197Z,41.52
2022-08-25T00:34:54.625Z,41.60
2022-08-25T00:35:26.062Z,41.44
2022-08-25T00:35:57.494Z,41.45
2022-08-25T00:36:28.936Z,41.67
2022-08-25T00:37:00.369Z,41.53
2022-08-25T00:37:31.802Z,41.82
2022-08-25T00:38:04.882Z,41.74
2022-08-25T00:38:36.474Z,41.48
2022-08-25T00:39:08.897Z,41.54
2022-08-25T00:39:40.388Z,41.21
2022-08-25T00:40:11.902Z,41.53
2022-08-25T00:40:43.425Z,41.46
2022-08-25T00:41:14.863Z,41.78
2022-08-25T00:41:46.291Z,41.42
2022-08-25T00:42:17.733Z,41.42
2022-08-25T00:42:49.243Z,41.51
2022-08-25T00:43:20.825Z,41.75
2022-08-25T00:43:52.255Z,41.45
2022-08-25T00:44:23.685Z,41.77
2022-08-25T00:44:55.111Z,41.76
2022-08-25T00:45:26.540Z,41.30
2022-08-25T00:45:58.030Z,41.68
2022-08-25T00:46:29.541Z,41.27
2022-08-25T00:47:01.006Z,41.76
2022-08-25T00:47:32.434Z,41.25
2022-08-25T00:48:04.153Z,41.84
2022-08-25T00:48:35.891Z,41.53
2022-08-25T00:49:07.333Z,41.84
2022-08-25T00:49:39.857Z,41.40
2022-08-25T00:50:11.288Z,41.61
2022-08-25T00:50:42.764Z,41.57
2022-08-25T00:51:14.198Z,41.53
2022-08-25T00:51:45.635Z,41.66
2022-08-25T00:52:17.064Z,41.42
2022-08-25T00:52:48.498Z,41.79
2022-08-25T00:53:19.939Z,41.81
2022-08-25T00:53:51.419Z,41.22
2022-08-25T00:54:22.868Z,41.62
2022-08-25T00:54:54.301Z,41.51
2022-08-25T00:55:25.740Z,41.74
2022-08-25T00:55:57.169Z,41.48
2022-08-25T00:56:28.601Z,41.55
2022-08-25T00:57:00.036Z,41.53
2022-08-25T00:57:34.906Z,41.91
2022-08-25T00:58:06.613Z,41.87
2022-08-25T00:58:38.059Z,41.85
2022-08-25T00:59:09.553Z,41.67
2022-08-25T00:59:40.997Z,41.31
2022-08-25T01:00:12.425Z,41.41
2022-08-25T01:00:43.855Z,41.86
2022-08-25T01:01:15.340Z,41.50
2022-08-25T01:01:46.879Z,41.79
2022-08-25T01:02:18.367Z,41.33
2022-08-25T01:02:49.867Z,41.96
2022-08-25T01:03:21.351Z,41.51
2022-08-25T01:04:01.940Z,41.47
2022-08-25T01:04:33.436Z,41.54
2022-08-25T01:05:04.866Z,41.58
2022-08-25T01:05:36.294Z,41.53
2022-08-25T01:06:07.729Z,41.67
2022-08-25T01:06:39.163Z,41.22
2022-08-25T01:07:10.601Z,41.96
2022-08-25T01:07:48.847Z,41.29
2022-08-25T01:08:20.455Z,41.61
2022-08-25T01:08:51.892Z,41.70
2022-08-25T01:09:23.326Z,41.67
2022-08-25T01:09:54.968Z,41.61
2022-08-25T01:10:26.405Z,41.97
2022-08-25T01:10:57.847Z,41.42
2022-08-25T01:11:29.288Z,41.62
2022-08-25T01:12:00.724Z,41.45
2022-08-25T01:12:32.157Z,41.41
2022-08-25T01:13:03.597Z,41.63
2022-08-25T01:13:35.037Z,41.52
2022-08-25T01:14:06.510Z,41.32
2022-08-25T01:14:37.940Z,41.91
2022-08-25T01:15:09.439Z,41.79
2022-08-25T01:15:40.899Z,41.70
2022-08-25T01:16:12.461Z,41.61
2022-08-25T01:16:43.954Z,41.22
2022-08-25T01:17:15.379Z,41.32
2022-08-25T01:17:46.808Z,41.71
2022-08-25T01:18:18.252Z,41.29
2022-08-25T01:18:49.693Z,41.71
2022-08-25T01:19:21.136Z,41.57
2022-08-25T01:19:52.567Z,41.92
2022-08-25T01:20:24.432Z,42.02
2022-08-25T01:21:00.848Z,41.84
2022-08-25T01:21:32.275Z,41.70
2022-08-25T01:22:03.699Z,41.71
2022-08-25T01:22:35.134Z,41.77
2022-08-25T01:23:06.568Z,41.23
2022-08-25T01:23:38.005Z,41.29
2022-08-25T01:24:09.431Z,41.69
2022-08-25T01:24:40.862Z,41.86
2022-08-25T01:25:12.300Z,41.78
2022-08-25T01:25:43.806Z,41.59
2022-08-25T01:26:15.242Z,41.49
2022-08-25T01:26:46.678Z,41.42
2022-08-25T01:27:18.107Z,41.57
2022-08-25T01:27:49.529Z,41.39
2022-08-25T01:28:20.958Z,41.55
2022-08-25T01:28:52.396Z,41.45
2022-08-25T01:29:23.831Z,41.45
2022-08-25T01:29:55.258Z,41.75
2022-08-25T01:30:26.696Z,41.93
2022-08-25T01:30:58.176Z,41.86
2022-08-25T01:31:29.778Z,41.57
2022-08-25T01:32:01.216Z,41.89
2022-08-25T01:32:32.645Z,41.43
2022-08-25T01:33:04.134Z,41.77
2022-08-25T01:33:35.564Z,41.87
2022-08-25T01:34:06.991Z,41.52
2022-08-25T01:34:38.415Z,41.62
2022-08-25T01:35:09.848Z,41.52
2022-08-25T01:35:41.277Z,41.80
2022-08-25T01:36:12.862Z,41.39
2022-08-25T01:36:44.296Z,41.36
2022-08-25T01:37:15.745Z,41.92
2022-08-25T01:37:47.252Z,42.09
2022-08-25T01:38:18.689Z,41.74
2022-08-25T01:38:50.237Z,41.46
2022-08-25T01:39:21.667Z,41.90
2022-08-25T01:39:53.137Z,41.51
2022-08-25T01:40:24.715Z,41.83
2022-08-25T01:40:56.176Z,41.38
2022-08-25T01:41:27.727Z,41.35
2022-08-25T01:41:59.161Z,41.49
2022-08-25T01:42:30.597Z,41.90
2022-08-25T01:43:02.040Z,41.69
2022-08-25T01:43:33.485Z,41.30
2022-08-25T01:44:04.920Z,41.71
2022-08-25T01:44:36.356Z,41.95
2022-08-25T01:45:07.789Z,41.78
2022-08-25T01:45:39.228Z,41.83
2022-08-25T01:46:10.698Z,41.51
2022-08-25T01:46:42.297Z,41.70
2022-08-25T01:47:13.731Z,41.71
2022-08-25T01:47:45.183Z,41.99
2022-08-25T01:48:16.671Z,41.50
2022-08-25T01:48:48.110Z,41.61
2022-08-25T01:49:19.545Z,41.88
2022-08-25T01:49:50.967Z,41.67
2022-08-25T01:50:22.396Z,41.82
2022-08-25T01:50:53.824Z,41.62
2022-08-25T01:51:25.263Z,42.04
2022-08-25T01:51:56.765Z,41.67
2022-08-25T01:52:28.232Z,41.62
2022-08-25T01:52:59.660Z,41.77
2022-08-25T01:53:33.362Z,41.75
2022-08-25T01:54:05.009Z,41.56
2022-08-25T01:54:36.443Z,42.00
2022-08-25T01:55:07.887Z,41.76
2022-08-25T01:55:39.320Z,41.96
2022-08-25T01:56:11.134Z,41.63
2022-08-25T01:56:42.570Z,41.94
2022-08-25T01:57:14.115Z,41.69
2022-08-25T01:57:45.550Z,42.00
2022-08-25T01:58:16.990Z,41.84
2022-08-25T01:58:48.426Z,41.80
2022-08-25T01:59:24.366Z,41.81
2022-08-25T01:59:55.950Z,42.01
2022-08-25T02:00:27.384Z,42.04
2022-08-25T02:00:58.904Z,41.80
2022-08-25T02:01:30.477Z,41.96
2022-08-25T02:02:02.005Z,42.08
2022-08-25T02:02:36.503Z,41.48
2022-08-25T02:03:18.530Z,41.80
2022-08-25T02:03:50.574Z,41.52
2022-08-25T02:04:22.233Z,41.55
2022-08-25T02:04:53.664Z,41.55
2022-08-25T02:05:25.087Z,41.74
2022-08-25T02:05:56.527Z,41.85
2022-08-25T02:06:27.989Z,41.50
2022-08-25T02:07:01.180Z,41.75
2022-08-25T02:07:32.612Z,41.85
2022-08-25T02:08:04.333Z,42.01
2022-08-25T02:08:35.918Z,41.60
2022-08-25T02:09:07.353Z,41.53
2022-08-25T02:09:38.851Z,41.88
2022-08-25T02:10:10.276Z,41.57
2022-08-25T02:10:41.709Z,41.76
2022-08-25T02:11:13.143Z,41.39
2022-08-25T02:11:44.569Z,41.61
2022-08-25T02:12:16.002Z,42.09
2022-08-25T02:12:47.431Z,41.91
2022-08-25T02:13:18.915Z,41.67
2022-08-25T02:13:50.344Z,41.63
2022-08-25T02:14:21.771Z,41.65
2022-08-25T02:14:53.264Z,41.62
2022-08-25T02:15:24.699Z,41.98
2022-08-25T02:15:56.132Z,41.92
2022-08-25T02:16:27.593Z,41.88
2022-08-25T02:16:59.069Z,41.73
2022-08-25T02:17:30.592Z,41.74
2022-08-25T02:18:02.134Z,42.13
2022-08-25T02:18:33.688Z,41.48
2022-08-25T02:19:05.116Z,41.75
2022-08-25T02:19:36.546Z,41.85
2022-08-25T02:20:07.985Z,41.50
2022-08-25T02:20:39.417Z,41.44
2022-08-25T02:21:10.851Z,41.60
2022-08-25T02:21:42.306Z,41.85
2022-08-25T02:22:13.756Z,41.86
2022-08-25T02:22:56.643Z,41.46
2022-08-25T02:23:28.577Z,41.74
2022-08-25T02:24:00.041Z,41.82
2022-08-25T02:24:32.072Z,41.85
2022-08-25T02:25:03.499Z,41.61
2022-08-25T02:25:34.931Z,41.52
2022-08-25T02:26:06.368Z,41.69
2022-08-25T02:26:37.797Z,41.75
2022-08-25T02:27:09.228Z,41.89
2022-08-25T02:27:40.661Z,41.42
2022-08-25T02:28:12.092Z,42.01
2022-08-25T02:28:43.516Z,41.84
2022-08-25T02:29:15.025Z,41.52
2022-08-25T02:29:46.473Z,41.53
2022-08-25T02:30:17.905Z,41.82
2022-08-25T02:30:49.382Z,41.88
2022-08-25T02:31:20.877Z,41.75
2022-08-25T02:31:52.300Z,41.92
2022-08-25T02:32:23.730Z,41.69
2022-08-25T02:32:55.166Z,42.17
2022-08-25T02:33:26.603Z,41.80
2022-08-25T02:33:58.046Z,41.45
2022-08-25T02:34:29.589Z,41.45
2022-08-25T02:35:01.019Z,41.53
2022-08-25T02:35:32.450Z,41.76
2022-08-25T02:36:03.880Z,41.78
2022-08-25T02:36:35.319Z,41.74
2022-08-25T02:37:06.759Z,42.05
2022-08-25T02:37:38.187Z,42.06
2022-08-25T02:38:09.625Z,41.64
2022-08-25T02:38:41.058Z,41.64
2022-08-25T02:39:12.496Z,41.62
2022-08-25T02:39:44.182Z,41.89
2022-08-25T02:40:15.742Z,41.87
2022-08-25T02:40:47.191Z,41.82
2022-08-25T02:41:18.629Z,41.46
2022-08-25T02:41:50.060Z,41.75
2022-08-25T02:42:21.487Z,41.69
2022-08-25T02:42:52.916Z,41.62
2022-08-25T02:43:24.350Z,41.77
2022-08-25T02:43:55.775Z,41.76
2022-08-25T02:44:27.208Z,41.65
2022-08-25T02:44:58.676Z,41.62
2022-08-25T02:45:30.174Z,41.79
2022-08-25T02:46:01.680Z,42.01
2022-08-25T02:46:33.155Z,41.86
2022-08-25T02:47:04.597Z,41.73
2022-08-25T02:47:36.032Z,42.07
2022-08-25T02:48:07.576Z,41.71
2022-08-25T02:48:39.037Z,41.86
2022-08-25T02:49:10.469Z,42.15
2022-08-25T02:49:41.901Z,41.73
2022-08-25T02:50:13.516Z,41.84
2022-08-25T02:50:44.957Z,42.09
2022-08-25T02:51:16.391Z,41.97
2022-08-25T02:51:47.819Z,41.95
2022-08-25T02:52:19.256Z,41.53
2022-08-25T02:52:50.686Z,41.83
2022-08-25T02:53:22.112Z,41.87
2022-08-25T02:53:53.532Z,41.86
2022-08-25T02:54:24.975Z,41.93
2022-08-25T02:54:56.404Z,41.90
2022-08-25T02:55:27.987Z,41.76
2022-08-25T02:55:59.412Z,41.95
2022-08-25T02:56:30.837Z,41.88
2022-08-25T02:57:02.273Z,42.00
2022-08-25T02:57:33.709Z,41.82
2022-08-25T02:58:05.265Z,41.88
2022-08-25T02:58:36.768Z,41.61
2022-08-25T02:59:08.203Z,41.62
2022-08-25T02:59:39.633Z,41.90
2022-08-25T03:00:11.064Z,41.79
2022-08-25T03:00:44.366Z,41.85
2022-08-25T03:01:15.984Z,41.73
2022-08-25T03:01:47.530Z,41.75
2022-08-25T03:02:18.961Z,41.84
2022-08-25T03:02:50.388Z,41.81
2022-08-25T03:03:21.884Z,41.63
2022-08-25T03:03:53.389Z,41.79
2022-08-25T03:04:24.930Z,41.84
2022-08-25T03:04:56.472Z,41.89
2022-08-25T03:05:27.932Z,42.06
2022-08-25T03:05:59.494Z,41.96
2022-08-25T03:06:30.926Z,42.08
2022-08-25T03:07:02.360Z,41.98
2022-08-25T03:07:35.579Z,42.03
2022-08-25T03:08:07.147Z,41.88
2022-08-25T03:08:38.591Z,41.86
2022-08-25T03:09:10.029Z,41.60
2022-08-25T03:09:41.457Z,42.09
2022-08-25T03:10:12.879Z,41.61
2022-08-25T03:10:44.318Z,42.07
2022-08-25T03:11:15.791Z,41.98
2022-08-25T03:11:47.224Z,41.95
2022-08-25T03:12:18.719Z,42.01
2022-08-25T03:12:50.158Z,41.82
2022-08-25T03:13:21.585Z,41.72
2022-08-25T03:13:53.011Z,41.79
2022-08-25T03:14:24.442Z,41.70
2022-08-25T03:14:55.878Z,41.87
2022-08-25T03:15:27.309Z,41.94
2022-08-25T03:16:02.957Z,41.69
2022-08-25T03:16:34.635Z,42.30
2022-08-25T03:17:08.650Z,41.79
2022-08-25T03:17:40.299Z,41.94
2022-08-25T03:18:12.293Z,42.18
2022-08-25T03:18:45.534Z,42.00
2022-08-25T03:19:17.013Z,41.88
2022-08-25T03:19:48.445Z,41.52
2022-08-25T03:20:19.885Z,41.88
2022-08-25T03:20:51.314Z,42.04
2022-08-25T03:21:22.828Z,41.96
2022-08-25T03:21:54.264Z,41.88
2022-08-25T03:22:25.695Z,41.96
2022-08-25T03:22:58.614Z,42.22
2022-08-25T03:23:30.081Z,42.02
2022-08-25T03:24:01.508Z,42.24
2022-08-25T03:24:32.945Z,41.97
2022-08-25T03:25:04.383Z,42.07
2022-08-25T03:25:35.818Z,42.12
2022-08-25T03:26:07.265Z,41.76
2022-08-25T03:26:38.820Z,41.81
2022-08-25T03:27:10.248Z,41.89
2022-08-25T03:27:43.266Z,42.02
2022-08-25T03:28:14.706Z,42.02
2022-08-25T03:28:46.138Z,41.92
2022-08-25T03:29:17.573Z,41.91
2022-08-25T03:29:48.999Z,41.57
2022-08-25T03:30:20.429Z,42.24
2022-08-25T03:30:55.860Z,41.69
2022-08-25T03:31:28.004Z,41.90
2022-08-25T03:31:59.672Z,41.68
2022-08-25T03:32:31.136Z,42.27
2022-08-25T03:33:02.564Z,42.08
2022-08-25T03:33:33.990Z,41.80
2022-08-25T03:34:05.422Z,41.95
2022-08-25T03:34:36.932Z,41.68
2022-08-25T03:35:08.360Z,41.90
2022-08-25T03:35:39.790Z,41.88
2022-08-25T03:36:11.224Z,41.79
2022-08-25T03:36:42.776Z,42.18
2022-08-25T03:37:14.208Z,41.92
2022-08-25T03:37:45.642Z,41.71
2022-08-25T03:38:17.148Z,42.08
2022-08-25T03:38:48.584Z,42.12
2022-08-25T03:39:20.018Z,42.20
2022-08-25T03:39:51.484Z,41.77
2022-08-25T03:40:23.033Z,41.73
2022-08-25T03:40:54.514Z,42.12
2022-08-25T03:41:28.029Z,42.01
2022-08-25T03:42:00.735Z,41.93
2022-08-25T03:42:32.164Z,41.69
2022-08-25T03:43:03.601Z,42.23
2022-08-25T03:43:35.023Z,42.14
2022-08-25T03:44:06.453Z,41.86
2022-08-25T03:44:37.886Z,41.70
2022-08-25T03:45:09.316Z,42.22
2022-08-25T03:45:40.817Z,41.67
2022-08-25T03:46:12.354Z,41.76
2022-08-25T03:46:43.849Z,42.10
2022-08-25T03:47:15.408Z,42.13
2022-08-25T03:47:46.836Z,42.21
2022-08-25T03:48:18.255Z,41.95
2022-08-25T03:48:49.690Z,42.01
2022-08-25T03:49:21.116Z,41.83
2022-08-25T03:49:52.548Z,41.66
2022-08-25T03:50:23.980Z,42.04
2022-08-25T03:50:55.414Z,42.38
2022-08-25T03:51:26.841Z,42.03
2022-08-25T03:51:58.281Z,41.67
2022-08-25T03:52:29.775Z,42.01
2022-08-25T03:53:01.200Z,42.30
2022-08-25T03:53:32.633Z,41.92
2022-08-25T03:54:04.061Z,42.31
2022-08-25T03:54:35.483Z,42.09
2022-08-25T03:55:06.920Z,42.13
2022-08-25T03:55:38.353Z,42.18
2022-08-25T03:56:09.794Z,41.91
2022-08-25T03:56:41.228Z,41.88
2022-08-25T03:57:12.658Z,41.72
2022-08-25T03:57:44.258Z,42.20
2022-08-25T03:58:15.687Z,42.02
2022-08-25T03:58:47.121Z,41.74
2022-08-25T03:59:18.556Z,42.03
2022-08-25T03:59:50.006Z,41.78
2022-08-25T04:00:21.441Z,41.86
2022-08-25T04:00:52.904Z,41.82
2022-08-25T04:01:24.411Z,42.10
2022-08-25T04:01:55.955Z,41.67
2022-08-25T04:02:27.511Z,42.01
2022-08-25T04:02:59.005Z,41.61
2022-08-25T04:03:30.440Z,41.78
2022-08-25T04:04:01.877Z,41.73
2022-08-25T04:04:33.311Z,41.81
2022-08-25T04:05:04.744Z,42.00
2022-08-25T04:05:36.302Z,42.35
2022-08-25T04:06:07.742Z,41.76
2022-08-25T04:06:39.170Z,41.98
2022-08-25T04:07:10.593Z,41.79
2022-08-25T04:07:42.018Z,42.05
2022-08-25T04:08:13.483Z,42.10
2022-08-25T04:08:44.917Z,42.04
2022-08-25T04:09:16.353Z,41.70
2022-08-25T04:09:47.800Z,41.80
2022-08-25T04:10:19.238Z,42.21
2022-08-25T04:10:50.669Z,41.98
2022-08-25T04:11:22.104Z,42.21
2022-08-25T04:11:53.664Z,42.08
2022-08-25T04:12:25.117Z,41.76
2022-08-25T04:12:56.550Z,42.20
2022-08-25T04:13:28.062Z,41.76
2022-08-25T04:13:59.498Z,41.71
2022-08-25T04:14:30.940Z,41.76
2022-08-25T04:15:02.371Z,42.06
2022-08-25T04:15:33.800Z,42.34
2022-08-25T04:16:05.266Z,41.91
2022-08-25T04:16:36.794Z,42.35
2022-08-25T04:17:08.239Z,42.14
2022-08-25T04:17:39.677Z,42.04
2022-08-25T04:18:11.109Z,41.71
2022-08-25T04:18:42.805Z,42.14
2022-08-25T04:19:14.244Z,42.44
2022-08-25T04:19:45.731Z,42.14
2022-08-25T04:20:17.167Z,42.09
2022-08-25T04:20:48.592Z,41.84
2022-08-25T04:21:20.024Z,42.17
2022-08-25T04:21:51.448Z,42.05
2022-08-25T04:22:25.928Z,42.30
2022-08-25T04:23:00.349Z,41.72
2022-08-25T04:23:31.782Z,41.73
2022-08-25T04:24:03.346Z,41.95
2022-08-25T04:24:34.768Z,42.05
2022-08-25T04:25:06.209Z,42.05
2022-08-25T04:25:37.641Z,42.09
2022-08-25T04:26:09.077Z,42.16
2022-08-25T04:26:40.515Z,42.24
2022-08-25T04:27:11.935Z,42.22
2022-08-25T04:27:43.360Z,41.91
2022-08-25T04:28:14.785Z,42.29
2022-08-25T04:28:46.803Z,42.17
2022-08-25T04:29:18.301Z,42.18
2022-08-25T04:29:49.856Z,42.36
2022-08-25T04:30:21.289Z,41.88
2022-08-25T04:30:52.736Z,42.26
2022-08-25T04:31:24.223Z,42.01
2022-08-25T04:31:55.777Z,42.24
2022-08-25T04:32:27.278Z,41.99
2022-08-25T04:32:58.717Z,42.02
2022-08-25T04:33:30.154Z,42.02
2022-08-25T04:34:01.605Z,42.28
2022-08-25T04:34:33.073Z,41.85
2022-08-25T04:35:04.515Z,42.00
2022-08-25T04:35:35.955Z,41.71
2022-08-25T04:36:11.905Z,42.08
2022-08-25T04:36:43.595Z,42.02
2022-08-25T04:37:15.025Z,41.82
2022-08-25T04:37:46.462Z,42.16
2022-08-25T04:38:17.949Z,41.69
2022-08-25T04:38:49.395Z,42.15
2022-08-25T04:39:20.824Z,42.18
2022-08-25T04:39:52.332Z,41.85
2022-08-25T04:40:28.765Z,41.99
2022-08-25T04:41:00.676Z,41.65
2022-08-25T04:41:32.104Z,42.14
2022-08-25T04:42:03.956Z,42.00
2022-08-25T04:42:35.393Z,42.27
2022-08-25T04:43:06.823Z,41.94
2022-08-25T04:43:38.250Z,42.19
2022-08-25T04:44:09.676Z,42.30
2022-08-25T04:44:41.257Z,41.79
2022-08-25T04:45:12.690Z,42.33
2022-08-25T04:45:44.271Z,41.95
2022-08-25T04:46:20.055Z,42.26
2022-08-25T04:46:52.057Z,41.81
2022-08-25T04:47:23.484Z,42.15
2022-08-25T04:47:55.236Z,42.36
2022-08-25T04:48:26.718Z,41.88
2022-08-25T04:48:58.152Z,42.31
2022-08-25T04:49:29.581Z,42.27
2022-08-25T04:50:01.047Z,41.92
2022-08-25T04:50:32.484Z,42.27
2022-08-25T04:51:03.905Z,41.76
2022-08-25T04:51:35.329Z,42.40
2022-08-25T04:52:13.142Z,41.81
2022-08-25T04:52:46.006Z,42.25
2022-08-25T04:53:17.492Z,42.36
2022-08-25T04:53:48.929Z,42.06
2022-08-25T04:54:20.358Z,42.12
2022-08-25T04:54:51.788Z,41.85
2022-08-25T04:55:23.307Z,42.13
2022-08-25T04:55:54.744Z,42.33
2022-08-25T04:56:26.177Z,42.32
2022-08-25T04:56:58.323Z,42.40
2022-08-25T04:57:30.433Z,41.91
2022-08-25T04:58:01.941Z,42.05
2022-08-25T04:58:33.387Z,42.14
2022-08-25T04:59:04.818Z,42.27
2022-08-25T04:59:36.251Z,42.06
2022-08-25T05:00:07.691Z,42.47
2022-08-25T05:00:39.235Z,42.10
2022-08-25T05:01:10.745Z,42.24
2022-08-25T05:01:42.208Z,41.97
2022-08-25T05:02:13.636Z,41.96
2022-08-25T05:02:45.070Z,41.81
2022-08-25T05:03:16.499Z,41.76
2022-08-25T05:03:47.977Z,41.85
2022-08-25T05:04:27.788Z,41.98
2022-08-25T05:05:00.348Z,41.90
2022-08-25T05:05:31.780Z,42.11
2022-08-25T05:06:05.547Z,42.28
2022-08-25T05:06:36.972Z,42.15
2022-08-25T05:07:08.401Z,42.40
2022-08-25T05:07:39.828Z,41.82
2022-08-25T05:08:11.260Z,42.21
2022-08-25T05:08:42.701Z,42.15
2022-08-25T05:09:19.857Z,42.40
2022-08-25T05:09:53.237Z,42.05
2022-08-25T05:10:24.672Z,42.37
2022-08-25T05:10:58.087Z,42.00
2022-08-25T05:11:29.960Z,41.86
2022-08-25T05:12:04.348Z,41.77
2022-08-25T05:12:35.775Z,41.85
2022-08-25T05:13:07.923Z,42.08
2022-08-25T05:13:39.716Z,41.79
2022-08-25T05:14:12.472Z,41.87
2022-08-25T05:14:43.904Z,42.37
2022-08-25T05:15:15.346Z,41.93
2022-08-25T05:15:46.781Z,42.07
2022-08-25T05:16:18.232Z,42.46
2022-08-25T05:16:49.812Z,42.39
2022-08-25T05:17:21.276Z,42.13
2022-08-25T05:17:56.096Z,41.92
2022-08-25T05:18:27.641Z,42.20
2022-08-25T05:18:59.077Z,42.34
2022-08-25T05:19:30.512Z,42.18
2022-08-25T05:20:01.940Z,42.15
2022-08-25T05:20:33.375Z,42.09
2022-08-25T05:21:04.816Z,42.27
2022-08-25T05:21:36.248Z,42.09
2022-08-25T05:22:07.696Z,41.98
2022-08-25T05:22:39.120Z,41.73
2022-08-25T05:23:10.545Z,41.80
2022-08-25T05:23:41.981Z,42.04
2022-08-25T05:24:13.407Z,41.84
2022-08-25T05:24:44.835Z,41.97
2022-08-25T05:25:16.260Z,41.91
2022-08-25T05:25:47.683Z,42.10
2022-08-25T05:26:20.309Z,41.77
2022-08-25T05:26:52.072Z,42.29
2022-08-25T05:27:23.603Z,42.34
2022-08-25T05:27:55.033Z,41.80
2022-08-25T05:28:26.476Z,42.20
2022-08-25T05:28:57.904Z,42.28
2022-08-25T05:29:29.478Z,41.82
2022-08-25T05:30:00.975Z,41.75
2022-08-25T05:30:32.414Z,42.15
2022-08-25T05:31:03.935Z,41.94
2022-08-25T05:31:38.440Z,42.28
2022-08-25T05:32:13.427Z,42.09
2022-08-25T05:32:44.876Z,41.91
2022-08-25T05:33:16.307Z,41.79
2022-08-25T05:33:47.742Z,42.20
2022-08-25T05:34:19.212Z,41.93
2022-08-25T05:34:50.654Z,41.84
2022-08-25T05:35:22.084Z,42.16
2022-08-25T05:35:53.551Z,42.15
2022-08-25T05:36:24.979Z,42.13
2022-08-25T05:36:56.413Z,42.36
2022-08-25T05:37:27.884Z,42.25
2022-08-25T05:37:59.358Z,42.47
2022-08-25T05:38:30.795Z,41.91
2022-08-25T05:39:02.232Z,42.24
2022-08-25T05:39:33.662Z,42.15
2022-08-25T05:40:05.163Z,41.95
2022-08-25T05:40:36.616Z,42.11
2022-08-25T05:41:08.044Z,42.10
2022-08-25T05:41:39.468Z,42.27
2022-08-25T05:42:10.911Z,42.20
2022-08-25T05:42:42.443Z,42.16
2022-08-25T05:43:13.876Z,41.88
2022-08-25T05:43:45.313Z,42.06
2022-08-25T05:44:19.319Z,41.85
2022-08-25T05:44:51.919Z,42.23
2022-08-25T05:45:23.395Z,42.00
2022-08-25T05:45:55.007Z,42.39
2022-08-25T05:46:26.508Z,42.12
2022-08-25T05:46:57.941Z,42.42
2022-08-25T05:47:29.373Z,42.37
2022-08-25T05:48:00.910Z,42.37
2022-08-25T05:48:32.346Z,42.10
2022-08-25T05:49:04.940Z,41.76
2022-08-25T05:49:36.369Z,41.96
2022-08-25T05:50:07.811Z,41.91
2022-08-25T05:50:39.250Z,42.01
2022-08-25T05:51:10.877Z,42.19
2022-08-25T05:51:42.349Z,42.02
2022-08-25T05:52:17.748Z,42.22
2022-08-25T05:52:51.529Z,42.35
2022-08-25T05:53:23.072Z,42.06
2022-08-25T05:53:54.515Z,42.03
2022-08-25T05:54:25.958Z,41.96
2022-08-25T05:54:57.386Z,42.23
2022-08-25T05:55:28.820Z,42.25
2022-08-25T05:56:00.243Z,42.28
2022-08-25T05:56:31.783Z,42.33
2022-08-25T05:57:03.226Z,42.28
2022-08-25T05:57:34.651Z,42.22
2022-08-25T05:58:06.157Z,42.27
2022-08-25T05:58:37.729Z,42.52
2022-08-25T05:59:09.759Z,42.35
2022-08-25T05:59:41.303Z,42.09
2022-08-25T06:00:12.743Z,41.99
2022-08-25T06:00:44.207Z,42.36
2022-08-25T06:01:15.732Z,42.08
2022-08-25T06:01:47.268Z,42.45
2022-08-25T06:02:18.704Z,42.22
2022-08-25T06:02:50.208Z,42.48
2022-08-25T06:03:21.673Z,42.36
2022-08-25T06:03:53.223Z,42.29
2022-08-25T06:04:24.706Z,41.87
2022-08-25T06:04:56.137Z,42.34
2022-08-25T06:05:27.581Z,42.07
2022-08-25T06:05:59.017Z,42.06
2022-08-25T06:06:30.448Z,42.00
2022-08-25T06:07:02.131Z,42.12
2022-08-25T06:07:34.241Z,42.43
2022-08-25T06:08:05.900Z,42.01
2022-08-25T06:08:38.584Z,42.29
2022-08-25T06:09:11.687Z,42.54
2022-08-25T06:09:43.314Z,42.38
2022-08-25T06:10:16.468Z,42.12
2022-08-25T06:10:47.910Z,42.25
2022-08-25T06:11:19.416Z,42.32
2022-08-25T06:11:54.688Z,42.14
2022-08-25T06:12:26.479Z,42.14
2022-08-25T06:12:58.184Z,41.73
2022-08-25T06:13:30.013Z,41.74
2022-08-25T06:14:01.451Z,42.20
2022-08-25T06:14:32.913Z,42.43
2022-08-25T06:15:04.376Z,42.10
2022-08-25T06:15:35.956Z,42.29
2022-08-25T06:16:07.598Z,42.32
2022-08-25T06:16:39.346Z,42.04
2022-08-25T06:17:10.886Z,42.00
2022-08-25T06:17:42.331Z,41.99
2022-08-25T06:18:14.574Z,42.23
2022-08-25T06:18:46.012Z,41.75
2022-08-25T06:19:17.591Z,42.10
2022-08-25T06:19:49.025Z,42.14
2022-08-25T06:20:20.461Z,42.33
2022-08-25T06:20:56.909Z,42.21
2022-08-25T06:21:28.349Z,41.86
2022-08-25T06:21:59.780Z,42.32
2022-08-25T06:22:31.439Z,42.51
2022-08-25T06:23:03.411Z,41.89
2022-08-25T06:23:35.205Z,42.02
2022-08-25T06:24:07.097Z,42.16
2022-08-25T06:24:38.911Z,42.09
2022-08-25T06:25:10.745Z,42.41
2022-08-25T06:25:42.438Z,42.31
2022-08-25T06:26:20.906Z,42.16
2022-08-25T06:26:53.159Z,42.27
2022-08-25T06:27:24.993Z,41.78
2022-08-25T06:27:56.500Z,42.13
2022-08-25T06:28:28.067Z,42.11
2022-08-25T06:28:59.649Z,42.22
2022-08-25T06:29:31.150Z,42.44
2022-08-25T06:30:07.684Z,42.15
2022-08-25T06:30:39.746Z,42.08
2022-08-25T06:31:12.377Z,42.34
2022-08-25T06:31:44.657Z,42.17
2022-08-25T06:32:16.241Z,42.43
2022-08-25T06:32:47.845Z,42.42
2022-08-25T06:33:19.403Z,42.47
2022-08-25T06:33:50.943Z,41.92
2022-08-25T06:34:24.085Z,41.92
2022-08-25T06:34:56.079Z,42.20
2022-08-25T06:35:27.780Z,42.25
2022-08-25T06:35:59.294Z,42.43
2022-08-25T06:36:30.808Z,41.90
2022-08-25T06:37:04.637Z,42.66
2022-08-25T06:37:36.507Z,42.01
2022-08-25T06:38:07.982Z,42.15
2022-08-25T06:38:39.421Z,42.30
2022-08-25T06:39:10.862Z,42.17
2022-08-25T06:39:42.305Z,42.15
2022-08-25T06:40:13.818Z,42.13
2022-08-25T06:40:45.461Z,42.09
2022-08-25T06:41:16.901Z,42.12
2022-08-25T06:41:48.333Z,42.31
2022-08-25T06:42:19.768Z,42.20
2022-08-25T06:42:51.209Z,42.27
2022-08-25T06:43:22.641Z,41.83
2022-08-25T06:43:56.740Z,42.35
2022-08-25T06:44:36.781Z,42.05
2022-08-25T06:45:08.312Z,42.34
2022-08-25T06:45:39.740Z,42.43
2022-08-25T06:46:11.295Z,42.03
2022-08-25T06:46:42.776Z,42.46
2022-08-25T06:47:15.667Z,42.12
2022-08-25T06:47:47.191Z,42.34
2022-08-25T06:48:18.736Z,42.27
2022-08-25T06:48:50.309Z,42.43
2022-08-25T06:49:21.786Z,42.41